createdAt,value
2019-02-16T00:01:55.545Z,8.31
2019-02-16T00:04:25.147Z,8.30
2019-02-16T00:06:54.485Z,8.30
2019-02-16T00:09:24.116Z,8.21
2019-02-16T00:11:53.458Z,8.21
2019-02-16T00:14:24.552Z,8.10
2019-02-16T00:16:54.227Z,8.07
2019-02-16T00:19:23.576Z,8.07
2019-02-16T00:21:53.162Z,7.90
2019-02-16T00:24:22.507Z,7.90
2019-02-16T00:26:52.044Z,7.72
2019-02-16T00:29:21.639Z,7.72
2019-02-16T00:31:51.234Z,7.50
2019-02-16T00:34:20.577Z,7.50
2019-02-16T00:36:50.207Z,7.44
2019-02-16T00:39:19.555Z,7.39
2019-02-16T00:41:49.200Z,7.28
2019-02-16T00:44:18.554Z,7.28
2019-02-16T00:46:48.423Z,7.27
2019-02-16T00:49:17.762Z,7.27
2019-02-16T00:51:47.191Z,7.28
2019-02-16T00:54:16.538Z,7.26
2019-02-16T00:56:46.411Z,7.25
2019-02-16T00:59:15.765Z,7.24
2019-02-16T01:01:45.589Z,7.19
2019-02-16T01:04:15.233Z,7.06
2019-02-16T01:06:44.562Z,6.89
2019-02-16T01:09:14.461Z,6.72
2019-02-16T01:11:44.033Z,6.64
2019-02-16T01:14:13.768Z,6.64
2019-02-16T01:16:43.454Z,6.66
2019-02-16T01:19:13.503Z,6.67
2019-02-16T01:21:43.133Z,6.71
2019-02-16T01:24:12.561Z,6.75
2019-02-16T01:26:42.427Z,6.84
2019-02-16T01:29:12.059Z,6.94
2019-02-16T01:31:41.468Z,7.03
2019-02-16T01:34:10.808Z,7.10
2019-02-16T01:36:40.444Z,7.14
2019-02-16T01:39:11.058Z,7.16
2019-02-16T01:41:40.393Z,7.12
2019-02-16T01:44:10.029Z,7.06
2019-02-16T01:46:39.473Z,7.01
2019-02-16T01:49:08.936Z,6.95
2019-02-16T01:51:38.697Z,6.92
2019-02-16T01:54:08.334Z,6.91
2019-02-16T01:56:37.908Z,6.93
2019-02-16T01:59:07.611Z,6.97
2019-02-16T02:01:36.973Z,7.00
2019-02-16T02:04:07.132Z,7.01
2019-02-16T02:06:38.679Z,7.04
2019-02-16T02:09:08.324Z,7.09
2019-02-16T02:11:37.655Z,7.13
2019-02-16T02:14:07.599Z,7.15
2019-02-16T02:16:36.950Z,7.16
2019-02-16T02:19:06.631Z,7.19
2019-02-16T02:21:41.207Z,7.21
2019-02-16T02:24:07.278Z,7.22
2019-02-16T02:26:36.609Z,7.20
2019-02-16T02:29:05.959Z,7.15
2019-02-16T02:31:37.433Z,7.24
2019-02-16T02:34:06.635Z,7.24
2019-02-16T02:36:36.286Z,7.32
2019-02-16T02:39:06.082Z,7.36
2019-02-16T02:41:35.884Z,7.38
2019-02-16T02:44:05.511Z,7.43
2019-02-16T02:46:34.868Z,7.44
2019-02-16T02:49:04.443Z,7.45
2019-02-16T02:51:33.796Z,7.46
2019-02-16T02:54:03.742Z,7.44
2019-02-16T02:56:33.823Z,7.45
2019-02-16T02:59:03.689Z,7.47
2019-02-16T03:01:33.062Z,7.47
2019-02-16T03:04:02.670Z,7.48
2019-02-16T03:06:32.023Z,7.50
2019-02-16T03:09:01.821Z,7.50
2019-02-16T03:11:32.230Z,7.50
2019-02-16T03:14:01.858Z,7.48
2019-02-16T03:16:31.500Z,7.50
2019-02-16T03:19:00.843Z,7.51
2019-02-16T03:21:30.537Z,7.50
2019-02-16T03:23:59.883Z,7.52
2019-02-16T03:26:41.780Z,7.51
2019-02-16T11:23:35.100Z,19.67
2019-02-16T11:26:06.721Z,19.34
2019-02-16T11:28:43.565Z,19.33
2019-02-16T11:31:30.002Z,19.63
2019-02-16T11:34:06.835Z,19.63
2019-02-16T11:36:40.755Z,19.89
2019-02-16T11:39:26.938Z,20.05
2019-02-16T11:47:45.088Z,20.28
2019-02-16T11:50:16.087Z,20.42
2019-02-16T11:52:52.905Z,20.37
2019-02-16T11:55:24.253Z,20.18
2019-02-16T11:58:12.079Z,20.22
2019-02-16T12:03:56.144Z,20.08
2019-02-16T12:06:30.444Z,20.42
2019-02-16T12:09:02.028Z,20.82
2019-02-16T12:11:37.336Z,21.06
2019-02-16T12:14:20.845Z,20.98
2019-02-16T12:17:07.169Z,20.88
2019-02-16T12:19:47.724Z,20.81
2019-02-16T12:22:19.037Z,20.87
2019-02-16T12:25:04.827Z,21.00
2019-02-16T12:27:22.775Z,21.06
2019-02-16T12:29:54.035Z,21.12
2019-02-16T12:32:30.837Z,20.92
2019-02-16T12:35:20.424Z,20.78
2019-02-16T12:37:52.093Z,20.75
2019-02-16T12:40:29.036Z,20.80
2019-02-16T12:43:03.971Z,21.06
2019-02-16T12:45:34.992Z,21.32
2019-02-16T12:48:06.002Z,21.36
2019-02-16T12:50:39.717Z,21.48
2019-02-16T12:53:27.400Z,21.55
2019-02-16T12:56:10.859Z,21.75
2019-02-16T12:58:42.206Z,21.45
2019-02-16T13:01:31.356Z,21.18
2019-02-16T13:04:03.975Z,20.93
2019-02-16T13:06:34.982Z,21.17
2019-02-16T13:09:11.434Z,21.46
2019-02-16T13:11:57.635Z,21.42
2019-02-16T13:14:35.180Z,21.58
2019-02-16T13:17:09.268Z,21.93
2019-02-16T13:19:40.255Z,22.20
2019-02-16T13:22:11.263Z,22.07
2019-02-16T13:24:58.514Z,22.04
2019-02-16T13:27:45.950Z,22.30
2019-02-16T13:30:17.235Z,22.53
2019-02-16T13:32:57.304Z,22.57
2019-02-16T13:35:31.265Z,22.63
2019-02-16T13:38:12.796Z,22.46
2019-02-16T13:40:55.728Z,22.30
2019-02-16T13:43:27.179Z,21.94
2019-02-16T13:46:01.154Z,21.86
2019-02-16T13:48:32.446Z,21.98
2019-02-16T13:51:12.486Z,21.91
2019-02-16T13:53:52.623Z,21.67
2019-02-16T13:56:23.868Z,21.36
2019-02-16T13:58:56.363Z,21.31
2019-02-16T14:01:33.331Z,21.22
2019-02-16T14:04:13.110Z,21.36
2019-02-16T14:06:46.789Z,21.55
2019-02-16T14:09:18.115Z,21.56
2019-02-16T14:11:51.998Z,21.50
2019-02-16T14:14:25.677Z,21.51
2019-02-16T14:17:00.137Z,21.45
2019-02-16T14:19:29.535Z,21.58
2019-02-16T14:21:59.913Z,21.50
2019-02-16T14:24:43.187Z,21.12
2019-02-16T14:27:12.548Z,20.78
2019-02-16T14:29:42.987Z,20.44
2019-02-16T14:32:12.774Z,20.15
2019-02-16T14:34:42.428Z,20.09
2019-02-16T14:37:22.085Z,20.13
2019-02-16T14:39:51.436Z,20.21
2019-02-16T14:42:20.782Z,20.41
2019-02-16T14:44:50.310Z,20.49
2019-02-16T14:47:19.672Z,20.36
2019-02-16T14:49:49.312Z,20.27
2019-02-16T14:52:18.678Z,20.19
2019-02-16T14:54:48.323Z,20.13
2019-02-16T14:57:18.998Z,20.15
2019-02-16T14:59:48.345Z,20.09
2019-02-16T15:02:17.958Z,19.98
2019-02-16T15:04:47.495Z,19.93
2019-02-16T15:07:16.849Z,19.94
2019-02-16T15:09:46.594Z,19.93
2019-02-16T15:12:15.962Z,19.89
2019-02-16T15:14:45.454Z,19.91
2019-02-16T15:17:15.475Z,20.00
2019-02-16T15:19:45.186Z,19.83
2019-02-16T15:22:14.788Z,19.47
2019-02-16T15:24:44.451Z,19.30
2019-02-16T15:27:13.820Z,19.23
2019-02-16T15:29:43.935Z,19.11
2019-02-16T15:32:13.550Z,18.89
2019-02-16T15:34:42.898Z,18.65
2019-02-16T15:37:12.586Z,18.50
2019-02-16T15:39:41.974Z,18.42
2019-02-16T15:42:11.630Z,18.33
2019-02-16T15:44:42.559Z,18.21
2019-02-16T15:47:12.221Z,18.12
2019-02-16T15:49:41.574Z,18.05
2019-02-16T15:52:10.968Z,17.99
2019-02-16T15:54:40.507Z,17.92
2019-02-16T15:57:19.957Z,17.91
2019-02-16T15:59:49.606Z,17.86
2019-02-16T16:02:19.031Z,17.84
2019-02-16T16:04:48.664Z,17.77
2019-02-16T16:07:18.183Z,17.60
2019-02-16T16:10:05.033Z,17.60
2019-02-16T16:12:41.812Z,17.48
2019-02-16T16:15:13.124Z,17.30
2019-02-16T16:17:49.888Z,17.10
2019-02-16T16:20:21.164Z,16.94
2019-02-16T16:22:55.007Z,16.80
2019-02-16T16:25:35.312Z,16.72
2019-02-16T16:28:06.668Z,16.63
2019-02-16T16:30:44.466Z,16.62
2019-02-16T16:33:18.048Z,16.63
2019-02-16T16:35:49.532Z,16.66
2019-02-16T16:38:26.071Z,16.68
2019-02-16T16:40:59.969Z,16.68
2019-02-16T16:43:47.494Z,16.62
2019-02-16T16:46:18.483Z,16.56
2019-02-16T16:49:04.464Z,16.47
2019-02-16T16:51:41.129Z,16.42
2019-02-16T16:54:12.568Z,16.34
2019-02-16T16:56:46.217Z,16.29
2019-02-16T16:59:17.790Z,16.22
2019-02-16T17:02:04.887Z,16.12
2019-02-16T17:04:39.334Z,16.06
2019-02-16T17:07:27.007Z,16.02
2019-02-16T17:09:58.592Z,16.01
2019-02-16T17:12:35.834Z,15.97
2019-02-16T17:15:14.772Z,15.89
2019-02-16T17:17:45.773Z,15.80
2019-02-16T17:20:32.013Z,15.73
2019-02-16T17:23:03.304Z,15.57
2019-02-16T17:25:49.596Z,15.40
2019-02-16T17:28:26.597Z,15.28
2019-02-16T17:31:07.717Z,15.25
2019-02-16T17:33:41.842Z,15.23
2019-02-16T17:36:21.788Z,15.32
2019-02-16T17:38:52.785Z,15.42
2019-02-16T17:41:26.467Z,15.59
2019-02-16T17:44:00.417Z,15.73
2019-02-16T17:46:35.272Z,15.82
2019-02-16T17:49:09.529Z,15.85
2019-02-16T17:51:46.446Z,15.89
2019-02-16T17:54:23.479Z,15.93
2019-02-16T17:56:57.205Z,15.84
2019-02-16T17:59:34.319Z,15.67
2019-02-16T18:02:21.779Z,15.59
2019-02-16T18:04:52.894Z,15.56
2019-02-16T18:07:32.795Z,15.30
2019-02-16T18:10:13.018Z,14.96
2019-02-16T18:12:54.869Z,14.60
2019-02-16T18:15:35.243Z,14.30
2019-02-16T18:18:12.619Z,14.01
2019-02-16T18:20:44.106Z,13.74
2019-02-16T18:23:15.449Z,13.50
2019-02-16T18:25:54.968Z,13.25
2019-02-16T18:28:28.625Z,13.06
2019-02-16T18:31:02.432Z,12.89
2019-02-16T18:33:33.473Z,12.74
2019-02-16T18:36:07.424Z,12.62
2019-02-16T18:38:54.787Z,12.51
2019-02-16T18:41:26.009Z,12.41
2019-02-16T18:43:57.010Z,12.27
2019-02-16T18:46:34.005Z,12.14
2019-02-16T18:49:22.788Z,12.05
2019-02-16T18:51:53.888Z,11.98
2019-02-16T18:54:33.736Z,11.93
2019-02-16T18:57:13.539Z,11.85
2019-02-16T18:59:44.712Z,11.77
2019-02-16T19:02:21.584Z,11.67
2019-02-16T19:04:52.755Z,11.57
2019-02-16T19:07:23.749Z,11.47
2019-02-16T19:09:57.669Z,11.39
2019-02-16T19:12:28.647Z,11.32
2019-02-16T19:15:02.395Z,11.22
2019-02-16T19:17:42.651Z,11.10
2019-02-16T19:20:13.996Z,10.97
2019-02-16T19:22:51.022Z,10.83
2019-02-16T19:25:34.278Z,10.74
2019-02-16T19:28:08.745Z,10.70
2019-02-16T19:30:46.682Z,10.69
2019-02-16T19:33:20.905Z,10.67
2019-02-16T19:35:51.978Z,10.64
2019-02-16T19:38:39.763Z,10.62
2019-02-16T19:41:17.533Z,10.59
2019-02-16T19:44:01.512Z,10.53
2019-02-16T19:46:48.814Z,10.53
2019-02-16T19:49:34.818Z,10.57
2019-02-16T19:52:05.932Z,10.58
2019-02-16T19:54:52.139Z,10.58
2019-02-16T19:57:38.407Z,10.59
2019-02-16T20:00:29.254Z,10.56
2019-02-16T20:03:02.970Z,10.53
2019-02-16T20:05:41.135Z,10.53
2019-02-16T20:08:17.874Z,10.54
2019-02-16T20:10:51.849Z,10.58
2019-02-16T20:13:23.100Z,10.63
2019-02-16T20:15:54.102Z,10.67
2019-02-16T20:18:34.077Z,10.72
2019-02-16T20:21:23.235Z,10.74
2019-02-16T20:24:00.204Z,10.75
2019-02-16T20:26:43.454Z,10.73
2019-02-16T20:29:32.964Z,10.65
2019-02-16T20:32:10.091Z,10.65
2019-02-16T20:34:41.325Z,10.60
2019-02-16T20:37:12.669Z,10.53
2019-02-16T20:39:43.807Z,10.40
2019-02-16T20:42:31.139Z,10.35
2019-02-16T20:45:05.705Z,10.27
2019-02-16T20:47:37.960Z,10.22
2019-02-16T20:50:10.197Z,10.21
2019-02-16T20:52:46.925Z,10.22
2019-02-16T20:55:26.749Z,10.24
2019-02-16T20:57:57.993Z,10.26
2019-02-16T21:00:46.685Z,10.25
2019-02-16T21:03:20.664Z,10.21
2019-02-16T21:06:00.939Z,10.14
2019-02-16T21:08:40.716Z,10.07
2019-02-16T21:11:29.910Z,9.97
2019-02-16T21:14:02.210Z,9.89
2019-02-16T21:16:33.194Z,9.81
2019-02-16T21:19:20.544Z,9.73
2019-02-16T21:21:51.539Z,9.62
2019-02-16T21:24:22.840Z,9.52
2019-02-16T21:26:56.659Z,9.61
2019-02-16T21:29:40.027Z,10.17
2019-02-16T21:32:11.388Z,10.17
2019-02-16T21:34:48.471Z,10.44
2019-02-16T21:37:20.050Z,10.38
2019-02-16T21:39:57.040Z,10.26
2019-02-16T21:42:33.769Z,10.14
2019-02-16T21:45:05.049Z,9.97
2019-02-16T21:47:36.319Z,9.76
2019-02-16T21:50:15.604Z,9.53
2019-02-16T21:52:46.633Z,9.29
2019-02-16T21:55:21.153Z,9.10
2019-02-16T21:58:07.948Z,8.97
2019-02-16T22:00:55.224Z,8.74
2019-02-16T22:03:28.954Z,8.74
2019-02-16T22:06:16.176Z,8.67
2019-02-16T22:09:02.377Z,8.69
2019-02-16T22:11:43.020Z,8.71
2019-02-16T22:14:12.593Z,8.69
2019-02-16T22:16:42.197Z,8.73
2019-02-16T22:19:12.113Z,8.65
2019-02-16T22:21:41.956Z,8.59
2019-02-16T22:24:11.606Z,8.54
2019-02-16T22:26:41.241Z,8.52
2019-02-16T22:29:10.609Z,8.49
2019-02-16T22:31:40.474Z,8.46
2019-02-16T22:34:09.895Z,8.40
2019-02-16T22:36:39.634Z,8.38
2019-02-16T22:39:09.558Z,8.34
2019-02-16T22:41:39.319Z,8.28
2019-02-16T22:44:09.093Z,8.18
2019-02-16T22:46:38.589Z,8.00
2019-02-16T22:49:07.934Z,8.00
2019-02-16T22:51:37.404Z,7.94
2019-02-16T22:54:06.822Z,7.88
2019-02-16T22:56:36.411Z,7.83
2019-02-16T22:59:06.322Z,7.83
2019-02-16T23:04:23.704Z,7.79
2019-02-16T23:06:53.374Z,7.74
2019-02-16T23:09:24.611Z,7.64
2019-02-16T23:11:53.988Z,7.53
2019-02-16T23:14:24.265Z,7.44
2019-02-16T23:16:54.680Z,7.36
2019-02-16T23:19:24.290Z,7.26
2019-02-16T23:21:53.656Z,7.24
2019-02-16T23:24:23.000Z,7.20
2019-02-16T23:26:52.698Z,7.14
2019-02-16T23:29:22.300Z,7.09
2019-02-16T23:31:51.681Z,7.06
2019-02-16T23:34:21.047Z,7.03
2019-02-16T23:36:50.531Z,7.01
2019-02-16T23:39:19.911Z,7.02
2019-02-16T23:41:49.260Z,7.02
2019-02-16T23:44:18.708Z,6.94
2019-02-16T23:46:48.061Z,6.94
2019-02-16T23:49:17.479Z,6.90
2019-02-16T23:51:47.077Z,6.74
2019-02-16T23:54:20.171Z,6.59
2019-02-16T23:56:49.726Z,6.50
2019-02-16T23:59:19.085Z,6.45
